Time;durP1;ratioP1;P1;durP2;ratioP2;P2;SDS_P1;SDS_P2;PMS_P1;PMS_P2;Temp;Humidity;BMP_temperature;BMP_pressure;BME280_temperature;BME280_humidity;BME280_pressure;Samples;Min_cycle;Max_cycle;Signal;HPM_P1;HPM_P2
2022/10/15 00:00:52;;;;;;;85.10;40.42;;;11.90;99.90;;;;;;5060508;28;20028;-54
2022/10/15 00:03:18;;;;;;;104.53;39.67;;;11.80;99.90;;;;;;5066456;28;20029;-55
2022/10/15 00:05:44;;;;;;;72.05;37.30;;;11.90;99.90;;;;;;5066157;28;20044;-52
2022/10/15 00:08:10;;;;;;;115.57;40.22;;;11.90;99.90;;;;;;5061710;28;20040;-53
2022/10/15 00:10:36;;;;;;;136.13;44.10;;;11.90;99.90;;;;;;5069482;28;20082;-52
2022/10/15 00:13:04;;;;;;;101.32;41.60;;;11.80;99.90;;;;;;5068430;28;20048;-52
2022/10/15 00:15:29;;;;;;;79.45;39.00;;;11.80;99.90;;;;;;5063553;28;20449;-54
2022/10/15 00:17:55;;;;;;;102.55;39.67;;;11.80;99.90;;;;;;5063479;28;20120;-54
2022/10/15 00:20:21;;;;;;;133.07;43.53;;;11.80;99.90;;;;;;5065919;28;20041;-54
2022/10/15 00:22:47;;;;;;;82.28;38.78;;;11.80;99.90;;;;;;5056811;28;20068;-55
2022/10/15 00:25:13;;;;;;;91.45;40.00;;;11.80;99.90;;;;;;5060968;28;20036;-55
2022/10/15 00:27:38;;;;;;;100.38;39.75;;;11.80;99.90;;;;;;5059350;28;20045;-52
2022/10/15 00:30:05;;;;;;;82.00;38.90;;;11.80;99.90;;;;;;5041977;28;20056;-54
2022/10/15 00:32:31;;;;;;;108.57;41.38;;;11.80;99.90;;;;;;5058516;28;20040;-53
2022/10/15 00:34:56;;;;;;;87.57;39.67;;;11.80;99.90;;;;;;5059574;28;20052;-53
2022/10/15 00:37:22;;;;;;;74.60;36.97;;;11.80;99.90;;;;;;5059299;28;20125;-56
2022/10/15 00:39:48;;;;;;;112.28;41.25;;;11.80;99.90;;;;;;5057623;28;20116;-54
2022/10/15 00:42:14;;;;;;;81.47;39.00;;;11.80;99.90;;;;;;5061964;28;20452;-55
2022/10/15 00:44:57;;;;;;;77.00;38.83;;;11.80;99.90;;;;;;5058892;28;20036;-54
2022/10/15 00:47:41;;;;;;;124.18;41.53;;;11.80;99.90;;;;;;5061096;28;20055;-55
2022/10/15 00:50:17;;;;;;;82.93;39.50;;;11.80;99.90;;;;;;5063068;28;20081;-53
2022/10/15 00:53:08;;;;;;;88.00;38.55;;;11.80;99.90;;;;;;5065304;28;20098;-52
2022/10/15 00:55:40;;;;;;;126.18;39.72;;;11.70;99.90;;;;;;5063732;28;20047;-54
2022/10/15 00:58:12;;;;;;;155.50;40.65;;;11.70;99.90;;;;;;5067320;28;20127;-53
2022/10/15 01:00:37;;;;;;;164.88;39.90;;;11.70;99.90;;;;;;5064397;28;20834;-53
2022/10/15 01:03:03;;;;;;;111.93;36.63;;;11.70;99.90;;;;;;5063839;28;20098;-51
2022/10/15 01:05:29;;;;;;;150.88;41.22;;;11.70;99.90;;;;;;5061438;28;20501;-54
2022/10/15 01:07:55;;;;;;;156.02;40.25;;;11.70;99.90;;;;;;5064119;28;20049;-56
2022/10/15 01:10:25;;;;;;;181.25;43.10;;;11.70;99.90;;;;;;5063875;28;20535;-53
2022/10/15 01:13:01;;;;;;;98.53;37.33;;;11.70;99.90;;;;;;5064943;28;20048;-54
2022/10/15 01:16:10;;;;;;;112.25;37.75;;;11.70;99.90;;;;;;5061107;28;20050;-58
2022/10/15 01:18:57;;;;;;;71.22;36.20;;;11.70;99.90;;;;;;5061248;28;20576;-54
2022/10/15 01:21:46;;;;;;;99.53;36.80;;;11.60;99.90;;;;;;5062811;28;20044;-54
2022/10/15 01:24:50;;;;;;;123.28;41.10;;;11.60;99.90;;;;;;5066881;28;20049;-53
2022/10/15 01:27:37;;;;;;;80.72;35.75;;;11.60;99.90;;;;;;5043886;28;20059;-54
2022/10/15 01:30:09;;;;;;;165.37;41.73;;;11.60;99.90;;;;;;5042495;28;20510;-53
2022/10/15 01:33:08;;;;;;;80.72;36.03;;;11.50;99.90;;;;;;5040632;28;20045;-55
2022/10/15 01:35:50;;;;;;;75.65;35.67;;;11.50;99.90;;;;;;5045209;28;20045;-54
2022/10/15 01:38:29;;;;;;;72.13;34.58;;;11.40;99.90;;;;;;5041456;28;20052;-54
2022/10/15 01:40:58;;;;;;;77.88;35.90;;;11.40;99.90;;;;;;5037809;28;20065;-55
2022/10/15 01:43:50;;;;;;;89.45;36.25;;;11.40;99.90;;;;;;5042578;28;20068;-55
2022/10/15 01:46:23;;;;;;;119.43;37.22;;;11.40;99.90;;;;;;5036787;28;20057;-54
2022/10/15 01:48:54;;;;;;;74.57;35.45;;;11.40;99.90;;;;;;5040753;28;20060;-52
2022/10/15 01:51:23;;;;;;;84.07;37.38;;;11.50;99.90;;;;;;5026242;28;20045;-55
2022/10/15 01:53:50;;;;;;;72.93;35.95;;;11.30;99.90;;;;;;5041756;28;20091;-54
2022/10/15 01:56:20;;;;;;;108.00;40.53;;;11.40;99.90;;;;;;5027037;28;20060;-55
2022/10/15 01:58:49;;;;;;;65.18;35.00;;;11.40;99.90;;;;;;5041258;28;20174;-56
2022/10/15 02:01:14;;;;;;;72.25;36.95;;;11.40;99.90;;;;;;5041372;28;20041;-54
2022/10/15 02:03:48;;;;;;;70.68;36.92;;;11.40;99.90;;;;;;5058426;28;20461;-54
2022/10/15 02:06:26;;;;;;;80.22;38.83;;;11.40;99.90;;;;;;5063573;28;20063;-56
2022/10/15 02:09:30;;;;;;;66.00;35.17;;;11.40;99.90;;;;;;5063297;28;20048;-55
2022/10/15 02:12:08;;;;;;;71.30;36.50;;;11.40;99.90;;;;;;5061892;28;20070;-53
2022/10/15 02:14:57;;;;;;;69.70;37.80;;;11.40;99.90;;;;;;5060890;28;20052;-55
2022/10/15 02:17:34;;;;;;;72.03;36.90;;;11.40;99.90;;;;;;5061155;28;20032;-52
2022/10/15 02:20:06;;;;;;;69.87;37.30;;;11.40;99.90;;;;;;5061906;28;20107;-56
2022/10/15 02:22:38;;;;;;;66.75;36.88;;;11.40;99.90;;;;;;5062843;28;20123;-54
2022/10/15 02:25:17;;;;;;;58.78;34.85;;;11.40;99.90;;;;;;5062606;28;20086;-56
2022/10/15 02:27:45;;;;;;;70.65;37.60;;;11.40;99.90;;;;;;5063348;28;20072;-54
2022/10/15 02:30:11;;;;;;;63.85;34.47;;;11.40;99.90;;;;;;5062455;28;20778;-55
2022/10/15 02:32:39;;;;;;;54.05;33.22;;;11.40;99.90;;;;;;5061404;28;20033;-55
2022/10/15 02:35:07;;;;;;;51.58;32.75;;;11.30;99.90;;;;;;5059724;28;20054;-54
2022/10/15 02:37:35;;;;;;;54.22;33.78;;;11.40;99.90;;;;;;5064138;28;20099;-54
2022/10/15 02:40:01;;;;;;;;;;;11.30;99.90;;;;;;5066239;28;20479;-54
2022/10/15 02:42:27;;;;;;;66.10;35.92;;;11.30;99.90;;;;;;5067791;28;20038;-54
2022/10/15 02:44:52;;;;;;;55.88;34.80;;;11.20;99.90;;;;;;5066684;28;20118;-53
2022/10/15 02:47:18;;;;;;;58.92;35.25;;;11.20;99.90;;;;;;5065834;28;20494;-53
2022/10/15 02:49:43;;;;;;;57.17;34.85;;;11.20;99.90;;;;;;5066110;28;20381;-55
2022/10/15 02:52:09;;;;;;;61.75;35.63;;;11.20;99.90;;;;;;5065155;28;20117;-54
2022/10/15 02:54:35;;;;;;;57.30;33.75;;;11.20;99.90;;;;;;5061788;28;20040;-53
2022/10/15 02:57:00;;;;;;;64.15;36.40;;;11.20;99.90;;;;;;5062411;28;20060;-55
2022/10/15 02:59:26;;;;;;;55.25;33.47;;;11.20;99.90;;;;;;5062630;28;20567;-54
2022/10/15 03:01:51;;;;;;;59.58;34.17;;;11.20;99.90;;;;;;5059122;28;20041;-55
2022/10/15 03:04:17;;;;;;;53.38;33.60;;;11.30;99.90;;;;;;5071089;28;20049;-54
2022/10/15 03:06:43;;;;;;;50.10;32.35;;;11.30;99.90;;;;;;5066263;28;20051;-55
2022/10/15 03:09:08;;;;;;;47.28;32.50;;;11.30;99.90;;;;;;5061748;28;20398;-55
2022/10/15 03:11:34;;;;;;;44.97;31.45;;;11.40;99.90;;;;;;5060112;28;20123;-56
2022/10/15 03:13:59;;;;;;;52.70;33.60;;;11.40;99.90;;;;;;5063831;28;20044;-54
2022/10/15 03:16:25;;;;;;;47.75;31.33;;;11.30;99.90;;;;;;5075341;28;21608;-54
2022/10/15 03:18:51;;;;;;;50.00;31.42;;;11.40;99.90;;;;;;5060251;28;20036;-54
2022/10/15 03:21:16;;;;;;;46.63;31.38;;;11.40;99.90;;;;;;5059705;28;20028;-56
2022/10/15 03:23:42;;;;;;;47.20;30.30;;;11.40;99.90;;;;;;5061477;28;20505;-52
2022/10/15 03:26:07;;;;;;;45.15;31.27;;;11.40;99.90;;;;;;5062087;28;20032;-54
2022/10/15 03:28:33;;;;;;;39.25;29.55;;;11.40;99.90;;;;;;5067219;28;20106;-54
2022/10/15 03:30:59;;;;;;;40.38;28.92;;;11.40;99.90;;;;;;5065263;28;20041;-54
2022/10/15 03:33:24;;;;;;;43.30;29.90;;;11.30;99.90;;;;;;5066041;28;20032;-54
2022/10/15 03:35:51;;;;;;;41.17;29.60;;;11.30;99.90;;;;;;5067384;28;20062;-53
2022/10/15 03:38:17;;;;;;;45.42;30.95;;;11.30;99.90;;;;;;5068847;28;20040;-55
2022/10/15 03:40:44;;;;;;;43.35;29.17;;;11.30;99.90;;;;;;5067144;28;20082;-54
2022/10/15 03:43:09;;;;;;;48.60;30.60;;;11.30;99.90;;;;;;5066938;28;20436;-52
2022/10/15 03:45:35;;;;;;;41.70;29.98;;;11.20;99.90;;;;;;5067205;28;20490;-52
2022/10/15 03:48:01;;;;;;;48.63;32.50;;;11.20;99.90;;;;;;5064451;28;20110;-54
2022/10/15 03:50:26;;;;;;;46.28;31.75;;;11.20;99.90;;;;;;5068466;28;20072;-54
2022/10/15 03:52:52;;;;;;;49.95;33.28;;;11.20;99.90;;;;;;5061717;28;20593;-54
2022/10/15 03:55:17;;;;;;;58.38;35.00;;;11.20;99.90;;;;;;5063121;28;20047;-53
2022/10/15 03:57:43;;;;;;;52.22;34.72;;;11.20;99.90;;;;;;5063084;28;20276;-52
2022/10/15 04:00:11;;;;;;;51.70;34.65;;;11.30;99.90;;;;;;5068641;28;20032;-54
2022/10/15 04:02:36;;;;;;;50.80;33.53;;;11.30;99.90;;;;;;5064974;28;20040;-53
2022/10/15 04:05:02;;;;;;;51.28;33.67;;;11.30;99.90;;;;;;5061333;28;20033;-54
2022/10/15 04:07:28;;;;;;;54.80;36.80;;;11.40;99.90;;;;;;5066386;28;20045;-56
2022/10/15 04:09:53;;;;;;;53.67;35.58;;;11.40;99.90;;;;;;5065384;28;20101;-52
2022/10/15 04:12:19;;;;;;;53.25;35.35;;;11.30;99.90;;;;;;5064830;28;20131;-54
2022/10/15 04:14:44;;;;;;;61.28;37.38;;;11.40;99.90;;;;;;5063201;28;20044;-54
2022/10/15 04:17:10;;;;;;;57.85;37.05;;;11.30;99.90;;;;;;5067773;28;20106;-52
2022/10/15 04:19:36;;;;;;;62.33;38.25;;;11.30;99.90;;;;;;5066981;28;20064;-54
2022/10/15 04:22:02;;;;;;;53.30;35.92;;;11.30;99.90;;;;;;5065962;28;20137;-54
2022/10/15 04:24:28;;;;;;;55.13;35.58;;;11.30;99.90;;;;;;5071608;28;20451;-54
2022/10/15 04:26:54;;;;;;;59.70;38.92;;;11.20;99.90;;;;;;5071678;28;22024;-54
2022/10/15 04:29:19;;;;;;;58.17;36.75;;;11.20;99.90;;;;;;5071690;28;20127;-53
2022/10/15 04:31:45;;;;;;;56.70;37.53;;;11.10;99.90;;;;;;5068659;28;20048;-54
2022/10/15 04:34:11;;;;;;;60.22;36.83;;;11.10;99.90;;;;;;5071160;28;20040;-53
2022/10/15 04:36:36;;;;;;;60.95;37.75;;;11.00;99.90;;;;;;5068041;28;20513;-53
2022/10/15 04:39:03;;;;;;;56.72;37.05;;;11.00;99.90;;;;;;5065139;28;20189;-52
2022/10/15 04:41:29;;;;;;;65.05;38.67;;;10.90;99.90;;;;;;5065265;28;20241;-52
2022/10/15 04:43:56;;;;;;;60.10;38.20;;;11.00;99.90;;;;;;5065617;28;20123;-54
2022/10/15 04:46:22;;;;;;;64.40;38.53;;;10.90;99.90;;;;;;5064971;28;20099;-54
2022/10/15 04:48:48;;;;;;;68.82;40.63;;;10.90;99.90;;;;;;5060989;28;20050;-53
2022/10/15 04:51:17;;;;;;;64.05;38.80;;;10.90;99.90;;;;;;5064624;28;20190;-54
2022/10/15 04:53:43;;;;;;;67.88;40.40;;;10.90;99.90;;;;;;5063766;28;20064;-54
2022/10/15 04:56:14;;;;;;;72.50;41.05;;;10.90;99.90;;;;;;5064712;28;20044;-53
2022/10/15 04:58:41;;;;;;;70.03;39.70;;;10.80;99.90;;;;;;5060007;28;20083;-54
2022/10/15 05:01:11;;;;;;;75.18;39.50;;;10.80;99.90;;;;;;5056945;28;20039;-54
2022/10/15 05:03:38;;;;;;;72.35;40.67;;;10.80;99.90;;;;;;5060760;28;20040;-53
2022/10/15 05:06:16;;;;;;;70.75;40.17;;;10.70;99.90;;;;;;5056725;28;20765;-53
2022/10/15 05:08:42;;;;;;;75.28;41.72;;;10.70;99.90;;;;;;5066966;28;20036;-52
2022/10/15 05:11:11;;;;;;;79.40;41.85;;;10.70;99.90;;;;;;5065615;28;20050;-54
2022/10/15 05:13:37;;;;;;;78.00;42.17;;;10.80;99.90;;;;;;5067119;28;20048;-52
2022/10/15 05:16:14;;;;;;;73.78;41.15;;;10.70;99.90;;;;;;5072200;28;20029;-54
2022/10/15 05:18:41;;;;;;;74.50;40.83;;;10.70;99.90;;;;;;5065643;28;20387;-53
2022/10/15 05:21:07;;;;;;;80.20;42.40;;;10.70;99.90;;;;;;5064476;28;20584;-52
2022/10/15 05:23:33;;;;;;;64.00;38.63;;;10.70;99.90;;;;;;5064772;28;20036;-54
2022/10/15 05:26:00;;;;;;;72.00;39.22;;;10.70;99.90;;;;;;5064844;28;20036;-53
2022/10/15 05:28:26;;;;;;;80.45;43.08;;;10.60;99.90;;;;;;5065391;28;20557;-52
2022/10/15 05:30:52;;;;;;;77.10;40.22;;;10.60;99.90;;;;;;5065283;28;20119;-53
2022/10/15 05:33:17;;;;;;;80.57;41.33;;;10.70;99.90;;;;;;5065503;28;20041;-53
2022/10/15 05:35:43;;;;;;;76.30;41.92;;;10.70;99.90;;;;;;5066172;28;20127;-51
2022/10/15 05:38:09;;;;;;;77.70;42.15;;;10.80;99.90;;;;;;5069799;28;20597;-54
2022/10/15 05:40:34;;;;;;;79.88;41.53;;;10.80;99.90;;;;;;5067844;28;20380;-52
2022/10/15 05:43:00;;;;;;;85.78;42.80;;;10.90;99.90;;;;;;5068606;28;20406;-53
2022/10/15 05:45:25;;;;;;;79.35;41.50;;;11.00;99.90;;;;;;5069818;28;20037;-54
2022/10/15 05:47:55;;;;;;;81.68;41.80;;;11.00;99.90;;;;;;5071558;28;20063;-52
2022/10/15 05:50:21;;;;;;;82.00;41.35;;;11.10;99.90;;;;;;5068636;28;20049;-53
2022/10/15 05:52:47;;;;;;;83.90;41.42;;;11.10;99.90;;;;;;5071432;28;20051;-54
2022/10/15 05:55:13;;;;;;;84.35;43.22;;;11.20;99.90;;;;;;5071973;28;20041;-54
2022/10/15 05:57:38;;;;;;;77.93;41.17;;;11.20;99.90;;;;;;5069076;28;20041;-54
2022/10/15 06:00:05;;;;;;;80.53;42.22;;;;;;;;;;5064552;28;20037;-54
2022/10/15 06:02:31;;;;;;;78.23;42.63;;;11.30;99.90;;;;;;5064059;28;20041;-51
2022/10/15 06:04:57;;;;;;;74.90;42.05;;;11.30;99.90;;;;;;5062382;28;20036;-52
2022/10/15 06:07:22;;;;;;;70.90;40.38;;;11.40;99.90;;;;;;5065672;28;20536;-55
2022/10/15 06:09:48;;;;;;;74.10;41.10;;;11.40;99.90;;;;;;5064427;28;20036;-54
2022/10/15 06:12:13;;;;;;;73.18;41.42;;;11.40;99.90;;;;;;5064161;28;20132;-56
2022/10/15 06:14:39;;;;;;;69.40;39.85;;;11.40;99.90;;;;;;5063932;28;20053;-55
2022/10/15 06:17:05;;;;;;;70.07;40.13;;;11.40;99.90;;;;;;5062013;28;20367;-51
2022/10/15 06:19:30;;;;;;;69.32;41.00;;;11.50;99.90;;;;;;5061293;28;20135;-55
2022/10/15 06:21:56;;;;;;;66.05;40.53;;;11.50;99.90;;;;;;5061482;28;20037;-55
2022/10/15 06:24:22;;;;;;;71.93;40.67;;;11.50;99.90;;;;;;5069463;28;20041;-54
2022/10/15 06:26:48;;;;;;;64.25;39.45;;;11.50;99.90;;;;;;5066766;28;20048;-55
2022/10/15 06:29:17;;;;;;;65.18;40.42;;;;;;;;;;5059237;28;20056;-54
2022/10/15 06:31:42;;;;;;;62.63;38.92;;;11.60;99.90;;;;;;5062545;28;20037;-54
2022/10/15 06:34:08;;;;;;;64.45;39.50;;;11.60;99.90;;;;;;5059330;28;20052;-54
2022/10/15 06:36:34;;;;;;;62.05;39.65;;;11.70;99.90;;;;;;5063671;28;20223;-53
2022/10/15 06:38:59;;;;;;;66.10;40.03;;;11.80;99.90;;;;;;5063486;28;20398;-55
2022/10/15 06:41:25;;;;;;;62.58;39.92;;;11.80;99.90;;;;;;5063730;28;20036;-53
2022/10/15 06:43:50;;;;;;;64.80;40.95;;;11.80;99.90;;;;;;5061831;28;20032;-54
2022/10/15 06:46:16;;;;;;;57.00;37.40;;;11.80;99.90;;;;;;5059035;28;20502;-53
2022/10/15 06:48:41;;;;;;;62.90;38.88;;;11.80;99.90;;;;;;5058969;28;20061;-54
2022/10/15 06:51:07;;;;;;;57.53;38.25;;;11.90;99.90;;;;;;5059612;28;20044;-52
2022/10/15 06:53:33;;;;;;;56.97;38.83;;;11.90;99.90;;;;;;5060722;28;20037;-55
2022/10/15 06:56:03;;;;;;;57.67;38.17;;;11.90;99.90;;;;;;5065565;28;20100;-53
2022/10/15 06:58:29;;;;;;;58.17;38.47;;;12.00;99.90;;;;;;5060011;28;20198;-54
2022/10/15 07:01:02;;;;;;;57.70;39.10;;;12.00;99.90;;;;;;5058893;28;20064;-53
2022/10/15 07:03:28;;;;;;;55.65;39.25;;;12.10;99.90;;;;;;5059507;28;20466;-55
2022/10/15 07:05:54;;;;;;;56.28;37.03;;;12.10;99.90;;;;;;5062988;28;20052;-55
2022/10/15 07:08:19;;;;;;;51.03;36.47;;;12.20;99.90;;;;;;5060230;28;20087;-56
2022/10/15 07:10:45;;;;;;;55.90;37.47;;;12.20;99.90;;;;;;5061853;28;20040;-55
2022/10/15 07:13:11;;;;;;;51.78;36.92;;;12.20;99.90;;;;;;5062689;28;20041;-55
2022/10/15 07:15:36;;;;;;;55.17;36.45;;;12.30;99.90;;;;;;5057271;28;20036;-54
2022/10/15 07:18:02;;;;;;;52.58;37.83;;;12.30;99.90;;;;;;5055081;28;20075;-53
2022/10/15 07:20:30;;;;;;;50.10;36.95;;;12.40;99.90;;;;;;5057577;28;20498;-54
2022/10/15 07:22:59;;;;;;;52.22;36.70;;;;;;;;;;5058620;28;20401;-52
2022/10/15 07:25:26;;;;;;;48.17;36.55;;;12.50;99.90;;;;;;5057725;28;20131;-51
2022/10/15 07:27:54;;;;;;;54.40;37.85;;;12.50;99.90;;;;;;5056858;28;20391;-54
2022/10/15 07:30:23;;;;;;;50.95;37.63;;;12.60;99.90;;;;;;5061372;28;20072;-55
2022/10/15 07:32:52;;;;;;;50.85;36.78;;;12.60;99.90;;;;;;5055503;28;20043;-55
2022/10/15 07:35:17;;;;;;;51.42;37.78;;;12.60;99.90;;;;;;5061584;28;20044;-53
2022/10/15 07:37:43;;;;;;;51.47;36.72;;;12.70;99.90;;;;;;5058830;28;20422;-54
2022/10/15 07:40:09;;;;;;;52.83;38.22;;;12.70;99.90;;;;;;5061191;28;20424;-53
2022/10/15 07:42:35;;;;;;;55.92;38.03;;;12.80;99.90;;;;;;5063685;28;20040;-54
2022/10/15 07:45:00;;;;;;;50.97;40.05;;;12.80;99.90;;;;;;5061343;28;20453;-54
2022/10/15 07:47:26;;;;;;;50.42;38.95;;;12.90;99.90;;;;;;5063233;28;20387;-55
2022/10/15 07:49:51;;;;;;;49.22;37.92;;;12.90;99.90;;;;;;5061524;28;20620;-52
2022/10/15 07:52:17;;;;;;;49.45;38.63;;;13.20;99.90;;;;;;5065574;28;20464;-54
2022/10/15 07:54:43;;;;;;;52.15;39.83;;;13.20;99.90;;;;;;5065138;28;20090;-54
2022/10/15 07:57:08;;;;;;;55.05;40.15;;;13.20;99.90;;;;;;5063812;28;20033;-54
2022/10/15 07:59:34;;;;;;;54.60;40.65;;;13.30;99.90;;;;;;5067433;28;20098;-53
2022/10/15 08:02:00;;;;;;;56.25;40.53;;;13.30;99.90;;;;;;5064589;28;20037;-52
2022/10/15 08:04:26;;;;;;;55.13;42.97;;;13.40;99.90;;;;;;5063349;28;20037;-56
2022/10/15 08:06:51;;;;;;;53.45;42.05;;;13.60;99.90;;;;;;5063353;28;20049;-51
2022/10/15 08:09:17;;;;;;;58.25;42.85;;;13.70;99.90;;;;;;5065526;28;20036;-52
2022/10/15 08:11:43;;;;;;;53.95;41.60;;;13.80;99.90;;;;;;5066554;28;20574;-54
2022/10/15 08:14:08;;;;;;;53.85;41.88;;;14.00;99.90;;;;;;5065627;28;20040;-54
2022/10/15 08:16:34;;;;;;;55.30;41.40;;;13.90;99.90;;;;;;5057072;28;20446;-54
2022/10/15 08:19:00;;;;;;;54.33;41.97;;;14.10;99.90;;;;;;5062765;28;20120;-56
2022/10/15 08:21:25;;;;;;;53.95;41.47;;;14.10;99.90;;;;;;5061140;28;20033;-56
2022/10/15 08:23:51;;;;;;;55.13;42.33;;;14.10;99.90;;;;;;5059918;28;20045;-54
2022/10/15 08:26:17;;;;;;;55.03;41.53;;;14.30;99.90;;;;;;5060534;28;20037;-54
2022/10/15 08:28:43;;;;;;;59.70;43.00;;;14.50;99.90;;;;;;5064741;28;20553;-53
2022/10/15 08:31:08;;;;;;;51.58;40.63;;;14.50;99.90;;;;;;5060552;28;20128;-54
2022/10/15 08:33:36;;;;;;;47.65;39.05;;;14.50;99.90;;;;;;5061355;28;20444;-54
2022/10/15 08:36:04;;;;;;;46.65;35.95;;;14.40;99.90;;;;;;5061762;28;20175;-54
2022/10/15 08:38:30;;;;;;;47.65;35.22;;;14.20;99.90;;;;;;5055850;28;20087;-53
2022/10/15 08:40:58;;;;;;;43.08;34.25;;;14.10;99.90;;;;;;5061765;28;20072;-55
2022/10/15 08:43:33;;;;;;;44.92;33.33;;;14.00;99.90;;;;;;5060014;28;20051;-54
2022/10/15 08:46:02;;;;;;;49.90;36.38;;;13.80;99.90;;;;;;5058518;28;20167;-54
2022/10/15 08:48:43;;;;;;;52.38;37.53;;;13.70;99.90;;;;;;5065898;28;20102;-53
2022/10/15 08:51:19;;;;;;;59.10;39.55;;;13.60;99.90;;;;;;5056765;28;20041;-53
2022/10/15 08:53:52;;;;;;;59.25;39.15;;;13.60;99.90;;;;;;5065643;28;20040;-53
2022/10/15 08:56:26;;;;;;;54.78;36.70;;;13.50;99.90;;;;;;5065293;28;20040;-55
2022/10/15 08:58:58;;;;;;;55.97;36.55;;;13.40;99.90;;;;;;5062437;28;20166;-54
2022/10/15 09:01:58;;;;;;;54.92;37.00;;;13.40;99.90;;;;;;5058852;28;20524;-53
2022/10/15 09:04:33;;;;;;;61.13;39.13;;;13.40;99.90;;;;;;5060507;28;20083;-53
2022/10/15 09:07:20;;;;;;;55.40;36.92;;;13.40;99.90;;;;;;5066180;28;20047;-53
2022/10/15 09:09:50;;;;;;;60.13;37.50;;;13.40;99.90;;;;;;5067161;28;20048;-53
2022/10/15 09:12:40;;;;;;;55.78;36.97;;;13.30;99.90;;;;;;5070803;28;20070;-53
2022/10/15 09:15:12;;;;;;;60.10;37.83;;;13.40;99.90;;;;;;5065011;28;20510;-55
2022/10/15 09:17:38;;;;;;;59.38;38.45;;;13.30;99.90;;;;;;5047484;28;20363;-53
2022/10/15 09:20:06;;;;;;;59.33;37.60;;;13.30;99.90;;;;;;5068988;28;20044;-55
2022/10/15 09:22:33;;;;;;;58.20;37.13;;;13.30;99.90;;;;;;5061812;28;20485;-55
2022/10/15 09:25:13;;;;;;;62.40;37.58;;;13.20;99.90;;;;;;5062829;28;20055;-53
2022/10/15 09:27:38;;;;;;;62.45;38.28;;;13.30;99.90;;;;;;5062257;28;20433;-55
2022/10/15 09:30:11;;;;;;;62.00;37.38;;;13.30;99.90;;;;;;5068579;28;20456;-55
2022/10/15 09:32:40;;;;;;;58.70;38.20;;;13.30;99.90;;;;;;5066251;28;20049;-54
2022/10/15 09:35:23;;;;;;;58.90;38.47;;;13.40;99.90;;;;;;5068489;28;20058;-55
2022/10/15 09:38:34;;;;;;;61.25;38.38;;;13.30;99.90;;;;;;5069019;28;20486;-56
2022/10/15 09:41:17;;;;;;;58.42;37.03;;;13.40;99.90;;;;;;5065763;28;20044;-55
2022/10/15 09:43:49;;;;;;;48.95;34.22;;;13.40;99.90;;;;;;5061687;28;20036;-54
2022/10/15 09:46:14;;;;;;;50.67;35.70;;;13.40;99.90;;;;;;5063534;28;20033;-55
2022/10/15 09:48:49;;;;;;;51.25;35.67;;;13.50;99.90;;;;;;5063214;28;20498;-55
2022/10/15 09:51:24;;;;;;;48.80;34.92;;;13.50;99.90;;;;;;5066925;28;20602;-57
2022/10/15 09:54:15;;;;;;;45.50;33.35;;;13.70;99.90;;;;;;5067134;28;20085;-55
2022/10/15 09:56:47;;;;;;;42.33;32.88;;;13.90;99.90;;;;;;5070194;28;20401;-55
2022/10/15 09:59:20;;;;;;;42.00;31.35;;;14.00;99.90;;;;;;5064943;28;20394;-56
2022/10/15 10:02:15;;;;;;;39.75;30.58;;;14.20;99.90;;;;;;5066596;28;20041;-56
2022/10/15 10:04:41;;;;;;;38.15;29.35;;;14.20;99.90;;;;;;5069660;28;20048;-56
2022/10/15 10:07:07;;;;;;;35.92;28.80;;;14.30;99.90;;;;;;5070013;28;20426;-55
2022/10/15 10:09:37;;;;;;;35.22;27.60;;;14.30;99.90;;;;;;5073397;28;20086;-56
2022/10/15 10:12:06;;;;;;;32.72;26.73;;;14.40;99.90;;;;;;5071175;28;20044;-54
2022/10/15 10:14:56;;;;;;;30.10;25.60;;;14.70;99.90;;;;;;5068780;28;20040;-56
2022/10/15 10:17:23;;;;;;;29.85;25.63;;;14.80;99.90;;;;;;5070247;28;20044;-55
2022/10/15 10:20:08;;;;;;;29.25;24.52;;;14.80;99.90;;;;;;5068883;28;20072;-55
2022/10/15 10:22:54;;;;;;;30.02;24.65;;;14.90;99.90;;;;;;5070916;28;20040;-56
2022/10/15 10:25:25;;;;;;;29.00;23.52;;;15.00;99.90;;;;;;5069514;28;20044;-56
2022/10/15 10:27:55;;;;;;;26.08;23.27;;;15.00;99.90;;;;;;5071048;28;20106;-57
2022/10/15 10:30:21;;;;;;;28.70;24.08;;;15.10;99.90;;;;;;5070168;28;20386;-55
2022/10/15 10:32:48;;;;;;;25.67;22.80;;;15.20;99.90;;;;;;5067174;28;20128;-56
2022/10/15 10:35:22;;;;;;;25.85;22.52;;;15.20;99.90;;;;;;5072442;28;20406;-56
2022/10/15 10:37:48;;;;;;;27.25;22.90;;;15.30;99.90;;;;;;5071486;28;20048;-56
2022/10/15 10:40:34;;;;;;;27.70;23.02;;;15.40;99.90;;;;;;5061649;28;20437;-56
2022/10/15 10:43:28;;;;;;;23.33;20.83;;;15.60;99.90;;;;;;5063517;28;20129;-56
2022/10/15 10:45:59;;;;;;;22.55;20.17;;;15.70;99.90;;;;;;5065090;28;20032;-55
2022/10/15 10:48:51;;;;;;;22.33;19.95;;;15.70;99.90;;;;;;5067076;28;20063;-57
2022/10/15 10:51:26;;;;;;;21.15;18.80;;;15.70;99.90;;;;;;5056902;28;20040;-57
2022/10/15 10:54:03;;;;;;;20.45;18.30;;;15.40;99.90;;;;;;5069304;28;20067;-56
2022/10/15 10:56:38;;;;;;;21.75;19.23;;;15.30;99.90;;;;;;5067922;28;20090;-56
2022/10/15 10:59:24;;;;;;;21.42;19.13;;;15.10;99.90;;;;;;5067549;28;20082;-57
2022/10/15 11:01:51;;;;;;;21.88;18.85;;;15.00;99.90;;;;;;5066734;28;20140;-55
2022/10/15 11:04:29;;;;;;;22.20;19.17;;;15.00;99.90;;;;;;5065881;28;20045;-57
2022/10/15 11:06:59;;;;;;;23.73;20.80;;;15.00;99.90;;;;;;5063356;28;20043;-55
2022/10/15 11:09:46;;;;;;;23.88;19.33;;;15.10;99.90;;;;;;5064379;28;20174;-56
2022/10/15 11:12:46;;;;;;;24.73;19.25;;;15.20;99.90;;;;;;5063313;28;20127;-54
2022/10/15 11:15:32;;;;;;;22.95;20.50;;;15.20;99.90;;;;;;5062917;28;20047;-56
2022/10/15 11:18:17;;;;;;;21.48;18.55;;;15.20;99.90;;;;;;5058918;28;20028;-55
2022/10/15 11:20:54;;;;;;;19.65;17.55;;;15.10;99.90;;;;;;5064749;28;20044;-56
2022/10/15 11:23:43;;;;;;;22.45;19.00;;;15.10;99.90;;;;;;5065881;28;20037;-57
2022/10/15 11:26:50;;;;;;;22.02;17.85;;;15.20;99.90;;;;;;5066365;28;20040;-55
2022/10/15 11:29:52;;;;;;;18.98;16.27;;;15.20;99.90;;;;;;5063292;28;20479;-56
2022/10/15 11:32:32;;;;;;;21.25;16.75;;;15.30;99.90;;;;;;5065863;28;20047;-53
2022/10/15 11:35:39;;;;;;;18.90;16.63;;;15.20;99.90;;;;;;5067248;28;20071;-55
2022/10/15 11:38:04;;;;;;;19.70;16.80;;;15.20;99.90;;;;;;5062087;28;20047;-55
2022/10/15 11:40:53;;;;;;;19.08;17.08;;;15.30;99.90;;;;;;5067502;28;20399;-55
2022/10/15 11:43:40;;;;;;;20.42;16.92;;;15.50;99.90;;;;;;5059972;28;20052;-54
2022/10/15 11:46:09;;;;;;;17.08;15.25;;;15.70;99.90;;;;;;5068004;28;20391;-54
2022/10/15 11:48:41;;;;;;;21.17;17.13;;;15.70;99.90;;;;;;5063464;28;20076;-53
2022/10/15 11:51:44;;;;;;;18.63;16.52;;;15.80;99.90;;;;;;5060258;28;20131;-57
2022/10/15 11:54:28;;;;;;;20.98;17.58;;;15.70;99.90;;;;;;5065331;28;20401;-56
2022/10/15 11:56:58;;;;;;;17.65;15.85;;;15.70;99.90;;;;;;5065995;28;20043;-56
2022/10/15 11:59:51;;;;;;;18.48;16.23;;;15.70;99.90;;;;;;5060752;28;20079;-56
2022/10/15 12:02:38;;;;;;;17.95;15.98;;;15.70;99.90;;;;;;5059952;28;20044;-56
2022/10/15 12:05:13;;;;;;;19.10;16.30;;;15.60;99.90;;;;;;5070319;28;20121;-55
2022/10/15 12:07:41;;;;;;;18.42;16.45;;;15.60;99.90;;;;;;5065050;28;20037;-56
2022/10/15 12:10:24;;;;;;;20.88;17.27;;;15.60;99.90;;;;;;5068526;28;20037;-56
2022/10/15 12:13:09;;;;;;;18.92;16.58;;;15.60;99.90;;;;;;5070963;28;20115;-56
2022/10/15 12:15:46;;;;;;;19.25;17.23;;;15.60;99.90;;;;;;5062735;28;20054;-56
2022/10/15 12:18:12;;;;;;;22.77;18.98;;;15.50;99.90;;;;;;5068732;28;20471;-56
2022/10/15 12:20:41;;;;;;;26.05;20.02;;;15.50;99.90;;;;;;5071163;28;20079;-57
2022/10/15 12:23:25;;;;;;;20.48;17.92;;;15.40;99.90;;;;;;5067953;28;20547;-56
2022/10/15 12:25:51;;;;;;;24.30;19.60;;;15.40;99.90;;;;;;5069086;28;20124;-56
2022/10/15 12:28:23;;;;;;;22.58;18.27;;;15.40;99.90;;;;;;5071253;28;20123;-56
2022/10/15 12:30:53;;;;;;;22.98;19.08;;;15.40;99.90;;;;;;5069828;28;20052;-56
2022/10/15 12:33:33;;;;;;;22.85;19.20;;;15.50;99.90;;;;;;5070559;28;20047;-56
2022/10/15 12:36:08;;;;;;;21.08;18.25;;;15.50;99.90;;;;;;5068921;28;20044;-56
2022/10/15 12:38:50;;;;;;;26.33;19.33;;;15.40;99.90;;;;;;5068779;28;20037;-57
2022/10/15 12:41:15;;;;;;;20.58;17.40;;;15.40;99.90;;;;;;5070957;28;20049;-57
2022/10/15 12:43:51;;;;;;;21.58;18.25;;;15.40;99.90;;;;;;5071757;28;20544;-56
2022/10/15 12:46:17;;;;;;;20.58;17.00;;;15.40;99.90;;;;;;5073794;28;20041;-56
2022/10/15 12:48:45;;;;;;;19.08;17.02;;;15.40;99.90;;;;;;5074351;28;20056;-57